sensor_id;sensor_type;location;lat;lon;timestamp;P1;durP1;ratioP1;P2;durP2;ratioP2
12603;SDS011;6367;52.508;13.284;2022-12-18T00:02:01;44.67;;;20.93;;
12603;SDS011;6367;52.508;13.284;2022-12-18T00:04:27;44.30;;;21.00;;
12603;SDS011;6367;52.508;13.284;2022-12-18T00:06:53;45.85;;;19.75;;
12603;SDS011;6367;52.508;13.284;2022-12-18T00:09:19;52.25;;;21.55;;
12603;SDS011;6367;52.508;13.284;2022-12-18T00:11:44;47.07;;;21.07;;
12603;SDS011;6367;52.508;13.284;2022-12-18T00:14:11;46.40;;;19.97;;
12603;SDS011;6367;52.508;13.284;2022-12-18T00:16:38;44.00;;;20.77;;
12603;SDS011;6367;52.508;13.284;2022-12-18T00:19:05;43.97;;;19.48;;
12603;SDS011;6367;52.508;13.284;2022-12-18T00:21:32;41.72;;;19.02;;
12603;SDS011;6367;52.508;13.284;2022-12-18T00:23:59;49.90;;;20.63;;
12603;SDS011;6367;52.508;13.284;2022-12-18T00:26:25;42.22;;;18.90;;
12603;SDS011;6367;52.508;13.284;2022-12-18T00:28:53;40.72;;;19.02;;
12603;SDS011;6367;52.508;13.284;2022-12-18T00:31:21;49.58;;;21.58;;
12603;SDS011;6367;52.508;13.284;2022-12-18T00:33:48;46.47;;;20.35;;
12603;SDS011;6367;52.508;13.284;2022-12-18T00:36:22;44.03;;;18.73;;
12603;SDS011;6367;52.508;13.284;2022-12-18T00:38:50;41.05;;;17.33;;
12603;SDS011;6367;52.508;13.284;2022-12-18T00:41:16;33.50;;;14.83;;
12603;SDS011;6367;52.508;13.284;2022-12-18T00:44:03;32.78;;;16.40;;
12603;SDS011;6367;52.508;13.284;2022-12-18T00:46:30;38.78;;;17.08;;
12603;SDS011;6367;52.508;13.284;2022-12-18T00:48:55;49.70;;;19.00;;
12603;SDS011;6367;52.508;13.284;2022-12-18T00:51:21;41.87;;;18.93;;
12603;SDS011;6367;52.508;13.284;2022-12-18T00:53:47;41.13;;;16.73;;
12603;SDS011;6367;52.508;13.284;2022-12-18T00:56:12;42.33;;;18.10;;
12603;SDS011;6367;52.508;13.284;2022-12-18T00:58:38;42.03;;;17.50;;
12603;SDS011;6367;52.508;13.284;2022-12-18T01:01:04;44.50;;;19.83;;
12603;SDS011;6367;52.508;13.284;2022-12-18T01:03:30;39.20;;;19.65;;
12603;SDS011;6367;52.508;13.284;2022-12-18T01:05:56;37.47;;;16.67;;
12603;SDS011;6367;52.508;13.284;2022-12-18T01:08:22;50.80;;;20.80;;
12603;SDS011;6367;52.508;13.284;2022-12-18T01:10:48;43.13;;;18.65;;
12603;SDS011;6367;52.508;13.284;2022-12-18T01:13:14;48.03;;;19.03;;
12603;SDS011;6367;52.508;13.284;2022-12-18T01:15:39;42.77;;;18.30;;
12603;SDS011;6367;52.508;13.284;2022-12-18T01:18:05;42.07;;;19.57;;
12603;SDS011;6367;52.508;13.284;2022-12-18T01:20:32;45.95;;;21.35;;
12603;SDS011;6367;52.508;13.284;2022-12-18T01:22:57;45.23;;;19.00;;
12603;SDS011;6367;52.508;13.284;2022-12-18T01:25:23;46.03;;;20.37;;
12603;SDS011;6367;52.508;13.284;2022-12-18T01:27:49;51.80;;;22.07;;
12603;SDS011;6367;52.508;13.284;2022-12-18T01:30:14;50.50;;;20.43;;
12603;SDS011;6367;52.508;13.284;2022-12-18T01:32:40;49.53;;;22.60;;
12603;SDS011;6367;52.508;13.284;2022-12-18T01:35:06;46.67;;;20.10;;
12603;SDS011;6367;52.508;13.284;2022-12-18T01:37:32;51.95;;;21.55;;
12603;SDS011;6367;52.508;13.284;2022-12-18T01:39:58;48.47;;;20.70;;
12603;SDS011;6367;52.508;13.284;2022-12-18T01:42:23;52.67;;;21.07;;
12603;SDS011;6367;52.508;13.284;2022-12-18T01:47:44;53.25;;;21.27;;
12603;SDS011;6367;52.508;13.284;2022-12-18T01:50:22;56.50;;;21.95;;
12603;SDS011;6367;52.508;13.284;2022-12-18T01:53:05;42.22;;;18.65;;
12603;SDS011;6367;52.508;13.284;2022-12-18T01:55:46;47.55;;;20.92;;
12603;SDS011;6367;52.508;13.284;2022-12-18T01:58:15;51.30;;;22.42;;
12603;SDS011;6367;52.508;13.284;2022-12-18T02:00:42;46.00;;;20.10;;
12603;SDS011;6367;52.508;13.284;2022-12-18T02:03:07;48.03;;;21.10;;
12603;SDS011;6367;52.508;13.284;2022-12-18T02:05:46;50.13;;;21.80;;
12603;SDS011;6367;52.508;13.284;2022-12-18T02:08:32;49.85;;;19.58;;
12603;SDS011;6367;52.508;13.284;2022-12-18T02:18:44;39.72;;;17.23;;
12603;SDS011;6367;52.508;13.284;2022-12-18T02:26:55;39.60;;;16.77;;
12603;SDS011;6367;52.508;13.284;2022-12-18T02:29:31;36.85;;;17.35;;
12603;SDS011;6367;52.508;13.284;2022-12-18T02:32:04;40.70;;;17.80;;
12603;SDS011;6367;52.508;13.284;2022-12-18T02:34:35;43.38;;;19.75;;
12603;SDS011;6367;52.508;13.284;2022-12-18T02:37:03;48.92;;;19.92;;
12603;SDS011;6367;52.508;13.284;2022-12-18T02:39:34;46.55;;;19.40;;
12603;SDS011;6367;52.508;13.284;2022-12-18T02:42:02;44.03;;;18.55;;
12603;SDS011;6367;52.508;13.284;2022-12-18T02:44:33;43.92;;;19.20;;
12603;SDS011;6367;52.508;13.284;2022-12-18T02:47:12;42.17;;;17.35;;
12603;SDS011;6367;52.508;13.284;2022-12-18T02:52:24;39.40;;;16.77;;
12603;SDS011;6367;52.508;13.284;2022-12-18T02:55:13;36.15;;;16.77;;
12603;SDS011;6367;52.508;13.284;2022-12-18T03:00:20;42.72;;;19.00;;
12603;SDS011;6367;52.508;13.284;2022-12-18T03:02:57;37.90;;;17.83;;
12603;SDS011;6367;52.508;13.284;2022-12-18T03:05:33;40.13;;;19.60;;
12603;SDS011;6367;52.508;13.284;2022-12-18T03:08:15;40.13;;;18.77;;
12603;SDS011;6367;52.508;13.284;2022-12-18T03:10:54;37.97;;;19.13;;
12603;SDS011;6367;52.508;13.284;2022-12-18T03:13:32;43.08;;;19.05;;
12603;SDS011;6367;52.508;13.284;2022-12-18T03:16:02;45.22;;;17.58;;
12603;SDS011;6367;52.508;13.284;2022-12-18T03:18:38;40.88;;;19.52;;
12603;SDS011;6367;52.508;13.284;2022-12-18T03:21:13;41.22;;;17.38;;
12603;SDS011;6367;52.508;13.284;2022-12-18T03:23:46;42.67;;;18.10;;
12603;SDS011;6367;52.508;13.284;2022-12-18T03:26:16;41.45;;;19.52;;
12603;SDS011;6367;52.508;13.284;2022-12-18T03:28:55;40.55;;;18.30;;
12603;SDS011;6367;52.508;13.284;2022-12-18T03:31:25;46.28;;;18.33;;
12603;SDS011;6367;52.508;13.284;2022-12-18T03:33:55;46.28;;;19.25;;
12603;SDS011;6367;52.508;13.284;2022-12-18T03:36:24;49.42;;;20.90;;
12603;SDS011;6367;52.508;13.284;2022-12-18T03:38:50;46.15;;;17.60;;
12603;SDS011;6367;52.508;13.284;2022-12-18T03:41:31;41.00;;;18.00;;
12603;SDS011;6367;52.508;13.284;2022-12-18T03:44:03;41.22;;;18.38;;
12603;SDS011;6367;52.508;13.284;2022-12-18T03:46:58;44.10;;;18.75;;
12603;SDS011;6367;52.508;13.284;2022-12-18T03:49:35;48.80;;;19.10;;
12603;SDS011;6367;52.508;13.284;2022-12-18T03:52:13;48.30;;;18.33;;
12603;SDS011;6367;52.508;13.284;2022-12-18T03:54:49;47.10;;;19.60;;
12603;SDS011;6367;52.508;13.284;2022-12-18T03:57:16;48.65;;;19.50;;
12603;SDS011;6367;52.508;13.284;2022-12-18T03:59:45;50.45;;;19.13;;
12603;SDS011;6367;52.508;13.284;2022-12-18T04:02:13;48.70;;;19.00;;
12603;SDS011;6367;52.508;13.284;2022-12-18T04:04:42;43.95;;;18.70;;
12603;SDS011;6367;52.508;13.284;2022-12-18T04:07:09;54.28;;;20.75;;
12603;SDS011;6367;52.508;13.284;2022-12-18T04:09:36;54.33;;;20.13;;
12603;SDS011;6367;52.508;13.284;2022-12-18T04:12:04;45.67;;;18.35;;
12603;SDS011;6367;52.508;13.284;2022-12-18T04:14:30;48.35;;;17.95;;
12603;SDS011;6367;52.508;13.284;2022-12-18T04:17:00;48.55;;;20.08;;
12603;SDS011;6367;52.508;13.284;2022-12-18T04:19:26;53.15;;;20.08;;
12603;SDS011;6367;52.508;13.284;2022-12-18T04:21:52;48.73;;;19.93;;
12603;SDS011;6367;52.508;13.284;2022-12-18T04:24:18;47.53;;;19.17;;
12603;SDS011;6367;52.508;13.284;2022-12-18T04:26:43;41.00;;;19.33;;
12603;SDS011;6367;52.508;13.284;2022-12-18T04:29:09;48.40;;;20.90;;
12603;SDS011;6367;52.508;13.284;2022-12-18T04:31:34;49.83;;;20.90;;
12603;SDS011;6367;52.508;13.284;2022-12-18T04:34:00;46.90;;;19.73;;
12603;SDS011;6367;52.508;13.284;2022-12-18T04:36:26;55.78;;;20.67;;
12603;SDS011;6367;52.508;13.284;2022-12-18T04:38:52;51.47;;;20.03;;
12603;SDS011;6367;52.508;13.284;2022-12-18T04:41:18;53.33;;;19.00;;
12603;SDS011;6367;52.508;13.284;2022-12-18T04:43:43;51.40;;;20.00;;
12603;SDS011;6367;52.508;13.284;2022-12-18T04:46:09;52.03;;;21.93;;
12603;SDS011;6367;52.508;13.284;2022-12-18T04:48:35;55.37;;;21.87;;
12603;SDS011;6367;52.508;13.284;2022-12-18T04:51:01;61.67;;;23.85;;
12603;SDS011;6367;52.508;13.284;2022-12-18T04:53:26;55.17;;;21.77;;
12603;SDS011;6367;52.508;13.284;2022-12-18T04:56:09;52.23;;;21.73;;
12603;SDS011;6367;52.508;13.284;2022-12-18T04:58:36;53.65;;;21.40;;
12603;SDS011;6367;52.508;13.284;2022-12-18T05:01:03;63.33;;;22.98;;
12603;SDS011;6367;52.508;13.284;2022-12-18T05:03:29;66.70;;;23.05;;
12603;SDS011;6367;52.508;13.284;2022-12-18T05:05:55;67.10;;;24.70;;
12603;SDS011;6367;52.508;13.284;2022-12-18T05:08:21;68.32;;;25.85;;
12603;SDS011;6367;52.508;13.284;2022-12-18T05:10:48;60.60;;;24.02;;
12603;SDS011;6367;52.508;13.284;2022-12-18T05:13:13;54.33;;;22.47;;
12603;SDS011;6367;52.508;13.284;2022-12-18T05:15:39;69.97;;;25.87;;
12603;SDS011;6367;52.508;13.284;2022-12-18T05:18:04;73.13;;;25.70;;
12603;SDS011;6367;52.508;13.284;2022-12-18T05:20:30;57.00;;;24.20;;
12603;SDS011;6367;52.508;13.284;2022-12-18T05:22:56;61.83;;;24.10;;
12603;SDS011;6367;52.508;13.284;2022-12-18T05:25:23;62.95;;;24.55;;
12603;SDS011;6367;52.508;13.284;2022-12-18T05:27:48;74.80;;;29.80;;
12603;SDS011;6367;52.508;13.284;2022-12-18T05:30:15;63.03;;;24.73;;
12603;SDS011;6367;52.508;13.284;2022-12-18T05:32:41;61.63;;;24.70;;
12603;SDS011;6367;52.508;13.284;2022-12-18T05:35:07;68.63;;;26.23;;
12603;SDS011;6367;52.508;13.284;2022-12-18T05:37:34;65.75;;;26.88;;
12603;SDS011;6367;52.508;13.284;2022-12-18T05:40:00;60.77;;;27.03;;
12603;SDS011;6367;52.508;13.284;2022-12-18T05:42:26;70.60;;;26.73;;
12603;SDS011;6367;52.508;13.284;2022-12-18T05:44:52;71.13;;;27.23;;
12603;SDS011;6367;52.508;13.284;2022-12-18T05:47:17;69.53;;;26.53;;
12603;SDS011;6367;52.508;13.284;2022-12-18T05:49:43;65.67;;;24.93;;
12603;SDS011;6367;52.508;13.284;2022-12-18T05:52:09;69.23;;;25.70;;
12603;SDS011;6367;52.508;13.284;2022-12-18T05:54:34;66.20;;;25.20;;
12603;SDS011;6367;52.508;13.284;2022-12-18T05:57:00;64.97;;;26.17;;
12603;SDS011;6367;52.508;13.284;2022-12-18T05:59:26;68.83;;;26.27;;
12603;SDS011;6367;52.508;13.284;2022-12-18T06:01:51;49.83;;;21.63;;
12603;SDS011;6367;52.508;13.284;2022-12-18T06:04:17;62.57;;;24.33;;
12603;SDS011;6367;52.508;13.284;2022-12-18T06:06:43;70.13;;;28.27;;
12603;SDS011;6367;52.508;13.284;2022-12-18T06:09:08;75.60;;;27.03;;
12603;SDS011;6367;52.508;13.284;2022-12-18T06:11:37;64.50;;;23.33;;
12603;SDS011;6367;52.508;13.284;2022-12-18T06:14:04;54.30;;;23.33;;
12603;SDS011;6367;52.508;13.284;2022-12-18T06:16:31;59.72;;;23.38;;
12603;SDS011;6367;52.508;13.284;2022-12-18T06:19:00;61.33;;;25.63;;
12603;SDS011;6367;52.508;13.284;2022-12-18T06:21:27;54.75;;;23.45;;
12603;SDS011;6367;52.508;13.284;2022-12-18T06:23:54;54.17;;;22.48;;
12603;SDS011;6367;52.508;13.284;2022-12-18T06:26:19;57.67;;;25.77;;
12603;SDS011;6367;52.508;13.284;2022-12-18T06:28:45;52.07;;;21.53;;
12603;SDS011;6367;52.508;13.284;2022-12-18T06:31:11;52.20;;;23.70;;
12603;SDS011;6367;52.508;13.284;2022-12-18T06:33:37;51.30;;;23.75;;
12603;SDS011;6367;52.508;13.284;2022-12-18T06:36:04;53.25;;;23.48;;
12603;SDS011;6367;52.508;13.284;2022-12-18T06:38:33;52.55;;;24.80;;
12603;SDS011;6367;52.508;13.284;2022-12-18T06:41:00;54.53;;;23.95;;
12603;SDS011;6367;52.508;13.284;2022-12-18T06:43:25;51.27;;;21.00;;
12603;SDS011;6367;52.508;13.284;2022-12-18T06:45:57;59.00;;;23.13;;
12603;SDS011;6367;52.508;13.284;2022-12-18T06:48:24;53.92;;;22.38;;
12603;SDS011;6367;52.508;13.284;2022-12-18T06:50:49;56.90;;;24.07;;
12603;SDS011;6367;52.508;13.284;2022-12-18T06:53:15;50.20;;;22.90;;
12603;SDS011;6367;52.508;13.284;2022-12-18T06:55:40;51.87;;;20.37;;
12603;SDS011;6367;52.508;13.284;2022-12-18T06:58:06;48.80;;;22.30;;
12603;SDS011;6367;52.508;13.284;2022-12-18T07:00:32;51.67;;;21.97;;
12603;SDS011;6367;52.508;13.284;2022-12-18T07:02:57;50.50;;;22.23;;
12603;SDS011;6367;52.508;13.284;2022-12-18T07:05:23;48.63;;;19.77;;
12603;SDS011;6367;52.508;13.284;2022-12-18T07:07:48;46.37;;;19.27;;
12603;SDS011;6367;52.508;13.284;2022-12-18T07:10:14;46.83;;;21.47;;
12603;SDS011;6367;52.508;13.284;2022-12-18T07:12:40;48.70;;;22.77;;
12603;SDS011;6367;52.508;13.284;2022-12-18T07:15:06;49.60;;;21.70;;
12603;SDS011;6367;52.508;13.284;2022-12-18T07:17:32;48.05;;;23.40;;
12603;SDS011;6367;52.508;13.284;2022-12-18T07:19:57;50.07;;;22.77;;
12603;SDS011;6367;52.508;13.284;2022-12-18T07:22:24;51.03;;;23.60;;
12603;SDS011;6367;52.508;13.284;2022-12-18T07:24:51;56.97;;;23.80;;
12603;SDS011;6367;52.508;13.284;2022-12-18T07:27:16;53.70;;;24.33;;
12603;SDS011;6367;52.508;13.284;2022-12-18T07:29:42;58.97;;;23.47;;
12603;SDS011;6367;52.508;13.284;2022-12-18T07:32:08;63.33;;;25.80;;
12603;SDS011;6367;52.508;13.284;2022-12-18T07:34:34;70.87;;;27.97;;
12603;SDS011;6367;52.508;13.284;2022-12-18T07:36:59;61.38;;;25.45;;
12603;SDS011;6367;52.508;13.284;2022-12-18T07:39:25;72.83;;;26.83;;
12603;SDS011;6367;52.508;13.284;2022-12-18T07:41:51;75.23;;;29.20;;
12603;SDS011;6367;52.508;13.284;2022-12-18T07:44:35;78.55;;;29.48;;
12603;SDS011;6367;52.508;13.284;2022-12-18T07:47:01;77.05;;;29.77;;
12603;SDS011;6367;52.508;13.284;2022-12-18T07:49:27;72.70;;;29.07;;
12603;SDS011;6367;52.508;13.284;2022-12-18T07:51:54;69.30;;;28.17;;
12603;SDS011;6367;52.508;13.284;2022-12-18T07:54:21;64.25;;;26.48;;
12603;SDS011;6367;52.508;13.284;2022-12-18T07:56:47;61.78;;;23.17;;
12603;SDS011;6367;52.508;13.284;2022-12-18T07:59:12;51.90;;;23.50;;
12603;SDS011;6367;52.508;13.284;2022-12-18T08:01:38;50.80;;;22.17;;
12603;SDS011;6367;52.508;13.284;2022-12-18T08:04:04;45.07;;;20.17;;
12603;SDS011;6367;52.508;13.284;2022-12-18T08:06:29;49.07;;;20.77;;
12603;SDS011;6367;52.508;13.284;2022-12-18T08:08:55;48.70;;;21.30;;
12603;SDS011;6367;52.508;13.284;2022-12-18T08:11:22;48.78;;;20.95;;
12603;SDS011;6367;52.508;13.284;2022-12-18T08:13:49;55.25;;;20.33;;
12603;SDS011;6367;52.508;13.284;2022-12-18T08:16:15;49.03;;;20.27;;
12603;SDS011;6367;52.508;13.284;2022-12-18T08:18:41;52.22;;;21.02;;
12603;SDS011;6367;52.508;13.284;2022-12-18T08:21:10;43.80;;;20.67;;
12603;SDS011;6367;52.508;13.284;2022-12-18T08:23:46;47.13;;;18.92;;
12603;SDS011;6367;52.508;13.284;2022-12-18T08:26:12;45.70;;;20.02;;
12603;SDS011;6367;52.508;13.284;2022-12-18T08:28:38;46.08;;;20.20;;
12603;SDS011;6367;52.508;13.284;2022-12-18T08:31:04;46.60;;;21.60;;
12603;SDS011;6367;52.508;13.284;2022-12-18T08:33:30;52.58;;;22.02;;
12603;SDS011;6367;52.508;13.284;2022-12-18T08:35:58;47.28;;;20.23;;
12603;SDS011;6367;52.508;13.284;2022-12-18T08:38:24;64.90;;;24.42;;
12603;SDS011;6367;52.508;13.284;2022-12-18T08:40:49;43.23;;;20.30;;
12603;SDS011;6367;52.508;13.284;2022-12-18T08:43:19;51.13;;;19.85;;
12603;SDS011;6367;52.508;13.284;2022-12-18T08:46:03;58.70;;;22.80;;
12603;SDS011;6367;52.508;13.284;2022-12-18T08:48:28;49.73;;;21.17;;
12603;SDS011;6367;52.508;13.284;2022-12-18T08:50:58;45.73;;;19.60;;
12603;SDS011;6367;52.508;13.284;2022-12-18T08:53:24;55.08;;;20.85;;
12603;SDS011;6367;52.508;13.284;2022-12-18T08:55:51;49.88;;;22.08;;
12603;SDS011;6367;52.508;13.284;2022-12-18T08:58:17;54.53;;;22.40;;
12603;SDS011;6367;52.508;13.284;2022-12-18T09:00:43;51.17;;;22.00;;
12603;SDS011;6367;52.508;13.284;2022-12-18T09:03:15;50.03;;;21.60;;
12603;SDS011;6367;52.508;13.284;2022-12-18T09:05:42;51.63;;;23.75;;
12603;SDS011;6367;52.508;13.284;2022-12-18T09:08:08;60.05;;;22.50;;
12603;SDS011;6367;52.508;13.284;2022-12-18T09:10:34;46.10;;;21.10;;
12603;SDS011;6367;52.508;13.284;2022-12-18T09:13:07;50.33;;;19.60;;
12603;SDS011;6367;52.508;13.284;2022-12-18T09:15:32;61.30;;;23.27;;
12603;SDS011;6367;52.508;13.284;2022-12-18T09:17:58;53.70;;;22.63;;
12603;SDS011;6367;52.508;13.284;2022-12-18T09:20:23;55.83;;;21.13;;
12603;SDS011;6367;52.508;13.284;2022-12-18T09:22:49;55.33;;;22.80;;
12603;SDS011;6367;52.508;13.284;2022-12-18T09:25:15;45.43;;;19.77;;
12603;SDS011;6367;52.508;13.284;2022-12-18T09:27:40;58.20;;;23.03;;
12603;SDS011;6367;52.508;13.284;2022-12-18T09:30:06;47.27;;;20.57;;
12603;SDS011;6367;52.508;13.284;2022-12-18T09:32:32;48.50;;;21.42;;
12603;SDS011;6367;52.508;13.284;2022-12-18T09:34:58;52.27;;;21.30;;
12603;SDS011;6367;52.508;13.284;2022-12-18T09:37:24;45.00;;;20.63;;
12603;SDS011;6367;52.508;13.284;2022-12-18T09:39:50;48.50;;;19.57;;
12603;SDS011;6367;52.508;13.284;2022-12-18T09:42:18;52.73;;;21.17;;
12603;SDS011;6367;52.508;13.284;2022-12-18T09:44:49;47.92;;;20.13;;
12603;SDS011;6367;52.508;13.284;2022-12-18T09:47:25;43.20;;;19.58;;
12603;SDS011;6367;52.508;13.284;2022-12-18T09:50:01;53.88;;;22.25;;
12603;SDS011;6367;52.508;13.284;2022-12-18T09:52:32;46.97;;;19.48;;
12603;SDS011;6367;52.508;13.284;2022-12-18T09:57:53;52.75;;;21.73;;
12603;SDS011;6367;52.508;13.284;2022-12-18T10:00:23;51.70;;;20.92;;
12603;SDS011;6367;52.508;13.284;2022-12-18T10:02:51;47.20;;;20.50;;
12603;SDS011;6367;52.508;13.284;2022-12-18T10:05:42;51.80;;;20.58;;
12603;SDS011;6367;52.508;13.284;2022-12-18T10:10:57;47.17;;;19.75;;
12603;SDS011;6367;52.508;13.284;2022-12-18T10:13:46;50.63;;;20.73;;
12603;SDS011;6367;52.508;13.284;2022-12-18T10:21:40;46.83;;;21.67;;
12603;SDS011;6367;52.508;13.284;2022-12-18T10:24:20;40.90;;;18.83;;
12603;SDS011;6367;52.508;13.284;2022-12-18T10:26:55;46.70;;;20.88;;
12603;SDS011;6367;52.508;13.284;2022-12-18T10:29:41;41.67;;;18.38;;
12603;SDS011;6367;52.508;13.284;2022-12-18T10:32:12;42.78;;;18.73;;
12603;SDS011;6367;52.508;13.284;2022-12-18T10:34:45;41.78;;;19.00;;
12603;SDS011;6367;52.508;13.284;2022-12-18T10:37:13;45.55;;;21.08;;
12603;SDS011;6367;52.508;13.284;2022-12-18T10:39:42;47.25;;;18.42;;
12603;SDS011;6367;52.508;13.284;2022-12-18T10:42:16;41.77;;;20.47;;
12603;SDS011;6367;52.508;13.284;2022-12-18T10:44:43;41.30;;;20.23;;
12603;SDS011;6367;52.508;13.284;2022-12-18T10:47:14;39.03;;;18.90;;
12603;SDS011;6367;52.508;13.284;2022-12-18T10:49:52;37.17;;;18.25;;
12603;SDS011;6367;52.508;13.284;2022-12-18T10:52:21;35.72;;;16.48;;
12603;SDS011;6367;52.508;13.284;2022-12-18T10:54:52;40.80;;;20.55;;
12603;SDS011;6367;52.508;13.284;2022-12-18T10:59:55;40.15;;;18.35;;
12603;SDS011;6367;52.508;13.284;2022-12-18T11:02:34;44.10;;;20.45;;
12603;SDS011;6367;52.508;13.284;2022-12-18T11:05:03;48.10;;;21.15;;
12603;SDS011;6367;52.508;13.284;2022-12-18T11:07:56;53.35;;;22.13;;
12603;SDS011;6367;52.508;13.284;2022-12-18T11:10:33;51.20;;;21.05;;
12603;SDS011;6367;52.508;13.284;2022-12-18T11:13:15;52.63;;;22.67;;
12603;SDS011;6367;52.508;13.284;2022-12-18T11:15:46;44.97;;;21.10;;
12603;SDS011;6367;52.508;13.284;2022-12-18T11:18:16;52.53;;;22.52;;
12603;SDS011;6367;52.508;13.284;2022-12-18T11:21:06;50.55;;;21.38;;
12603;SDS011;6367;52.508;13.284;2022-12-18T11:23:35;49.70;;;21.67;;
12603;SDS011;6367;52.508;13.284;2022-12-18T11:26:15;55.40;;;22.10;;
12603;SDS011;6367;52.508;13.284;2022-12-18T11:36:25;52.75;;;22.60;;
12603;SDS011;6367;52.508;13.284;2022-12-18T11:38:56;43.00;;;19.40;;
12603;SDS011;6367;52.508;13.284;2022-12-18T11:41:30;45.22;;;21.38;;
12603;SDS011;6367;52.508;13.284;2022-12-18T11:44:55;39.75;;;19.50;;
12603;SDS011;6367;52.508;13.284;2022-12-18T11:49:50;43.65;;;19.40;;
12603;SDS011;6367;52.508;13.284;2022-12-18T11:52:18;39.05;;;20.00;;
12603;SDS011;6367;52.508;13.284;2022-12-18T11:54:53;43.33;;;20.13;;
12603;SDS011;6367;52.508;13.284;2022-12-18T11:57:33;40.47;;;20.38;;
12603;SDS011;6367;52.508;13.284;2022-12-18T12:00:12;41.60;;;20.23;;
12603;SDS011;6367;52.508;13.284;2022-12-18T12:06:20;45.25;;;20.70;;
12603;SDS011;6367;52.508;13.284;2022-12-18T12:17:20;45.40;;;20.85;;
12603;SDS011;6367;52.508;13.284;2022-12-18T12:20:10;46.28;;;24.00;;
12603;SDS011;6367;52.508;13.284;2022-12-18T12:25:44;46.58;;;21.02;;
12603;SDS011;6367;52.508;13.284;2022-12-18T12:31:03;43.30;;;19.83;;
12603;SDS011;6367;52.508;13.284;2022-12-18T12:39:34;46.72;;;21.27;;
12603;SDS011;6367;52.508;13.284;2022-12-18T12:42:04;43.95;;;21.95;;
12603;SDS011;6367;52.508;13.284;2022-12-18T12:44:55;46.45;;;21.35;;
12603;SDS011;6367;52.508;13.284;2022-12-18T12:47:30;43.45;;;21.75;;
12603;SDS011;6367;52.508;13.284;2022-12-18T12:49:59;41.15;;;20.35;;
12603;SDS011;6367;52.508;13.284;2022-12-18T12:52:29;41.92;;;21.92;;
12603;SDS011;6367;52.508;13.284;2022-12-18T12:55:12;36.35;;;18.92;;
12603;SDS011;6367;52.508;13.284;2022-12-18T13:00:21;42.53;;;20.52;;
12603;SDS011;6367;52.508;13.284;2022-12-18T13:05:40;43.30;;;21.40;;
12603;SDS011;6367;52.508;13.284;2022-12-18T13:08:26;43.05;;;21.10;;
12603;SDS011;6367;52.508;13.284;2022-12-18T13:10:54;45.20;;;22.17;;
12603;SDS011;6367;52.508;13.284;2022-12-18T13:13:51;40.83;;;20.63;;
12603;SDS011;6367;52.508;13.284;2022-12-18T13:16:20;43.90;;;21.05;;
12603;SDS011;6367;52.508;13.284;2022-12-18T13:21:20;38.80;;;19.77;;
12603;SDS011;6367;52.508;13.284;2022-12-18T13:23:46;50.90;;;22.08;;
12603;SDS011;6367;52.508;13.284;2022-12-18T13:34:12;42.97;;;21.75;;
12603;SDS011;6367;52.508;13.284;2022-12-18T13:36:45;45.05;;;20.95;;
12603;SDS011;6367;52.508;13.284;2022-12-18T13:41:43;39.80;;;19.83;;
12603;SDS011;6367;52.508;13.284;2022-12-18T13:47:04;43.53;;;22.75;;
12603;SDS011;6367;52.508;13.284;2022-12-18T13:52:03;46.17;;;23.67;;
12603;SDS011;6367;52.508;13.284;2022-12-18T13:54:50;49.05;;;23.15;;
12603;SDS011;6367;52.508;13.284;2022-12-18T13:57:50;39.70;;;21.85;;
12603;SDS011;6367;52.508;13.284;2022-12-18T14:02:50;43.92;;;21.60;;
12603;SDS011;6367;52.508;13.284;2022-12-18T14:05:29;35.35;;;20.52;;
12603;SDS011;6367;52.508;13.284;2022-12-18T14:08:02;43.85;;;22.88;;
12603;SDS011;6367;52.508;13.284;2022-12-18T14:10:33;45.42;;;24.48;;
12603;SDS011;6367;52.508;13.284;2022-12-18T14:13:02;46.20;;;22.87;;
12603;SDS011;6367;52.508;13.284;2022-12-18T14:15:32;40.80;;;22.60;;
12603;SDS011;6367;52.508;13.284;2022-12-18T14:18:01;47.92;;;24.08;;
12603;SDS011;6367;52.508;13.284;2022-12-18T14:20:34;37.67;;;21.58;;
12603;SDS011;6367;52.508;13.284;2022-12-18T14:22:59;46.20;;;24.63;;
12603;SDS011;6367;52.508;13.284;2022-12-18T14:25:27;42.95;;;22.42;;
12603;SDS011;6367;52.508;13.284;2022-12-18T14:28:02;45.83;;;22.70;;
12603;SDS011;6367;52.508;13.284;2022-12-18T14:30:43;44.50;;;23.98;;
12603;SDS011;6367;52.508;13.284;2022-12-18T14:35:41;50.55;;;25.55;;
12603;SDS011;6367;52.508;13.284;2022-12-18T14:40:57;54.00;;;26.02;;
12603;SDS011;6367;52.508;13.284;2022-12-18T14:43:24;59.63;;;28.48;;
12603;SDS011;6367;52.508;13.284;2022-12-18T14:45:51;58.35;;;29.27;;
12603;SDS011;6367;52.508;13.284;2022-12-18T14:48:21;51.72;;;25.75;;
12603;SDS011;6367;52.508;13.284;2022-12-18T14:50:58;56.28;;;25.50;;
12603;SDS011;6367;52.508;13.284;2022-12-18T14:56:00;56.60;;;28.88;;
12603;SDS011;6367;52.508;13.284;2022-12-18T14:58:27;56.30;;;28.33;;
12603;SDS011;6367;52.508;13.284;2022-12-18T15:00:53;50.33;;;25.45;;
12603;SDS011;6367;52.508;13.284;2022-12-18T15:03:19;52.13;;;25.00;;
12603;SDS011;6367;52.508;13.284;2022-12-18T15:05:46;57.33;;;27.05;;
12603;SDS011;6367;52.508;13.284;2022-12-18T15:08:29;56.58;;;26.98;;
12603;SDS011;6367;52.508;13.284;2022-12-18T15:10:59;55.65;;;25.52;;
12603;SDS011;6367;52.508;13.284;2022-12-18T15:13:24;53.20;;;26.13;;
12603;SDS011;6367;52.508;13.284;2022-12-18T15:15:51;45.47;;;23.77;;
12603;SDS011;6367;52.508;13.284;2022-12-18T15:18:40;44.85;;;22.90;;
12603;SDS011;6367;52.508;13.284;2022-12-18T15:21:08;42.00;;;23.42;;
12603;SDS011;6367;52.508;13.284;2022-12-18T15:23:36;44.72;;;24.00;;
12603;SDS011;6367;52.508;13.284;2022-12-18T15:26:08;40.47;;;21.63;;
12603;SDS011;6367;52.508;13.284;2022-12-18T15:28:36;40.05;;;22.15;;
12603;SDS011;6367;52.508;13.284;2022-12-18T15:33:43;31.77;;;18.23;;
12603;SDS011;6367;52.508;13.284;2022-12-18T15:36:29;35.80;;;18.40;;
12603;SDS011;6367;52.508;13.284;2022-12-18T15:38:55;37.60;;;19.70;;
12603;SDS011;6367;52.508;13.284;2022-12-18T15:41:24;38.83;;;19.55;;
12603;SDS011;6367;52.508;13.284;2022-12-18T15:43:52;32.88;;;19.25;;
12603;SDS011;6367;52.508;13.284;2022-12-18T15:46:19;36.40;;;19.80;;
12603;SDS011;6367;52.508;13.284;2022-12-18T15:48:50;33.53;;;19.00;;
12603;SDS011;6367;52.508;13.284;2022-12-18T15:51:18;32.15;;;18.30;;
12603;SDS011;6367;52.508;13.284;2022-12-18T15:53:50;29.10;;;17.35;;
12603;SDS011;6367;52.508;13.284;2022-12-18T15:56:19;35.95;;;18.85;;
12603;SDS011;6367;52.508;13.284;2022-12-18T15:59:10;31.98;;;18.05;;
12603;SDS011;6367;52.508;13.284;2022-12-18T16:01:37;34.17;;;19.00;;
12603;SDS011;6367;52.508;13.284;2022-12-18T16:04:03;35.23;;;18.73;;
12603;SDS011;6367;52.508;13.284;2022-12-18T16:06:29;29.90;;;16.73;;
12603;SDS011;6367;52.508;13.284;2022-12-18T16:08:54;35.03;;;19.73;;
12603;SDS011;6367;52.508;13.284;2022-12-18T16:14:23;26.75;;;16.30;;
12603;SDS011;6367;52.508;13.284;2022-12-18T16:16:54;34.28;;;17.95;;
12603;SDS011;6367;52.508;13.284;2022-12-18T16:19:21;32.88;;;18.30;;
12603;SDS011;6367;52.508;13.284;2022-12-18T16:21:47;37.03;;;18.23;;
12603;SDS011;6367;52.508;13.284;2022-12-18T16:24:18;35.78;;;18.08;;
12603;SDS011;6367;52.508;13.284;2022-12-18T16:26:48;28.73;;;16.80;;